createdAt,value
2019-03-24T00:00:45.961Z,10.00
2019-03-24T00:01:45.951Z,9.60
2019-03-24T00:02:45.939Z,10.80
2019-03-24T00:03:45.926Z,11.30
2019-03-24T00:04:45.919Z,10.60
2019-03-24T00:05:45.904Z,9.90
2019-03-24T00:06:45.894Z,10.60
2019-03-24T00:07:45.878Z,10.00
2019-03-24T00:08:45.874Z,9.70
2019-03-24T00:09:45.856Z,10.10
2019-03-24T00:10:45.842Z,10.00
2019-03-24T00:11:45.830Z,9.40
2019-03-24T00:12:45.818Z,9.90
2019-03-24T00:13:45.807Z,9.80
2019-03-24T00:14:45.795Z,10.00
2019-03-24T00:15:45.786Z,10.20
2019-03-24T00:16:45.770Z,9.70
2019-03-24T00:17:45.758Z,9.80
2019-03-24T00:18:45.749Z,9.90
2019-03-24T00:19:45.739Z,10.60
2019-03-24T00:20:45.726Z,10.20
2019-03-24T00:21:45.712Z,10.50
2019-03-24T00:22:45.699Z,10.50
2019-03-24T00:23:45.688Z,10.30
2019-03-24T00:24:45.678Z,9.40
2019-03-24T00:25:45.666Z,10.50
2019-03-24T00:26:45.653Z,9.60
2019-03-24T00:27:45.644Z,10.40
2019-03-24T00:28:45.626Z,10.10
2019-03-24T00:29:45.615Z,10.60
2019-03-24T00:30:45.602Z,10.10
2019-03-24T00:31:45.591Z,10.80
2019-03-24T00:32:45.578Z,10.00
2019-03-24T00:33:45.565Z,11.00
2019-03-24T00:34:45.554Z,11.30
2019-03-24T00:35:45.539Z,11.00
2019-03-24T00:36:45.526Z,11.00
2019-03-24T00:37:45.516Z,12.00
2019-03-24T00:38:45.505Z,11.90
2019-03-24T00:39:45.491Z,10.60
2019-03-24T00:40:45.478Z,11.80
2019-03-24T00:41:45.464Z,12.40
2019-03-24T00:42:45.452Z,11.80
2019-03-24T00:43:45.440Z,11.90
2019-03-24T00:44:45.429Z,12.30
2019-03-24T00:45:45.417Z,13.00
2019-03-24T00:46:45.405Z,12.40
2019-03-24T00:47:45.391Z,12.30
2019-03-24T00:48:45.378Z,12.90
2019-03-24T00:49:45.366Z,12.10
2019-03-24T00:50:45.355Z,12.60
2019-03-24T00:51:45.345Z,12.10
2019-03-24T00:52:45.331Z,11.80
2019-03-24T00:53:45.318Z,10.90
2019-03-24T00:54:45.306Z,12.40
2019-03-24T00:55:45.295Z,12.90
2019-03-24T00:56:45.285Z,12.70
2019-03-24T00:57:45.268Z,13.40
2019-03-24T00:58:45.259Z,12.80
2019-03-24T00:59:45.246Z,12.10
2019-03-24T01:00:45.230Z,12.00
2019-03-24T01:01:45.219Z,12.10
2019-03-24T01:02:45.208Z,11.80
2019-03-24T01:03:45.194Z,12.20
2019-03-24T01:04:45.183Z,12.50
2019-03-24T01:05:45.169Z,11.90
2019-03-24T01:06:45.156Z,11.60
2019-03-24T01:07:45.146Z,11.40
2019-03-24T01:08:45.134Z,11.30
2019-03-24T01:09:45.118Z,10.70
2019-03-24T01:10:45.108Z,10.10
2019-03-24T01:11:45.096Z,10.70
2019-03-24T01:12:45.086Z,11.10
2019-03-24T01:13:45.071Z,11.30
2019-03-24T01:14:45.059Z,10.80
2019-03-24T01:15:47.990Z,10.40
2019-03-24T01:16:45.033Z,11.20
2019-03-24T01:17:45.027Z,11.40
2019-03-24T01:18:45.006Z,11.00
2019-03-24T01:19:44.994Z,11.00
2019-03-24T01:20:44.980Z,10.20
2019-03-24T01:21:44.971Z,10.90
2019-03-24T01:22:44.956Z,10.20
2019-03-24T01:23:44.947Z,10.60
2019-03-24T01:24:44.938Z,10.30
2019-03-24T01:25:55.357Z,10.30
2019-03-24T01:26:44.909Z,10.90
2019-03-24T01:27:44.893Z,9.80
2019-03-24T01:28:44.881Z,9.90
2019-03-24T01:29:44.873Z,10.90
2019-03-24T01:30:44.856Z,10.40
2019-03-24T01:31:44.844Z,11.80
2019-03-24T01:32:44.834Z,11.00
2019-03-24T01:33:44.818Z,11.80
2019-03-24T01:34:44.804Z,13.00
2019-03-24T01:35:44.792Z,13.10
2019-03-24T01:36:44.780Z,13.90
2019-03-24T01:37:44.767Z,13.50
2019-03-24T01:38:44.758Z,14.20
2019-03-24T01:39:44.742Z,13.10
2019-03-24T01:40:44.732Z,12.60
2019-03-24T01:41:44.721Z,13.40
2019-03-24T01:42:44.703Z,14.00
2019-03-24T01:43:44.693Z,13.30
2019-03-24T01:44:44.681Z,13.10
2019-03-24T01:45:44.667Z,13.50
2019-03-24T01:46:44.652Z,13.00
2019-03-24T01:47:44.641Z,14.20
2019-03-24T01:48:44.631Z,14.60
2019-03-24T01:49:44.619Z,14.40
2019-03-24T01:50:44.604Z,13.60
2019-03-24T01:51:44.594Z,14.10
2019-03-24T01:52:44.579Z,12.90
2019-03-24T01:53:44.566Z,13.20
2019-03-24T01:54:44.551Z,13.00
2019-03-24T01:55:44.540Z,12.30
2019-03-24T01:56:44.530Z,12.90
2019-03-24T01:57:44.518Z,13.20
2019-03-24T01:58:44.501Z,12.60
2019-03-24T01:59:44.488Z,11.50
2019-03-24T02:00:44.474Z,11.60
2019-03-24T02:01:44.462Z,11.70
2019-03-24T02:02:44.450Z,10.90
2019-03-24T02:03:44.437Z,11.60
2019-03-24T02:04:44.429Z,11.80
2019-03-24T02:05:44.410Z,12.40
2019-03-24T02:06:44.400Z,12.00
2019-03-24T02:07:44.387Z,12.60
2019-03-24T02:08:44.371Z,13.70
2019-03-24T02:09:44.360Z,13.60
2019-03-24T02:10:44.348Z,13.10
2019-03-24T02:11:44.332Z,12.30
2019-03-24T02:12:44.321Z,12.80
2019-03-24T02:13:44.310Z,14.10
2019-03-24T02:14:44.295Z,13.00
2019-03-24T02:15:44.280Z,13.50
2019-03-24T02:16:44.268Z,12.90
2019-03-24T02:17:44.257Z,13.50
2019-03-24T02:18:44.242Z,13.10
2019-03-24T02:19:44.230Z,12.30
2019-03-24T02:20:44.216Z,13.40
2019-03-24T02:21:44.204Z,13.10
2019-03-24T02:22:44.188Z,12.40
2019-03-24T02:23:44.178Z,12.80
2019-03-24T02:24:44.188Z,12.70
2019-03-24T02:25:44.152Z,13.90
2019-03-24T02:26:44.144Z,13.10
2019-03-24T02:27:44.127Z,13.50
2019-03-24T02:28:44.117Z,13.60
2019-03-24T02:29:44.099Z,13.50
2019-03-24T02:30:44.087Z,12.00
2019-03-24T02:31:44.074Z,12.30
2019-03-24T02:32:44.063Z,12.90
2019-03-24T02:33:44.051Z,12.10
2019-03-24T02:34:44.035Z,12.30
2019-03-24T02:35:44.030Z,12.20
2019-03-24T02:36:44.008Z,12.10
2019-03-24T02:37:44.003Z,12.30
2019-03-24T02:38:43.983Z,12.10
2019-03-24T02:39:43.972Z,12.50
2019-03-24T02:40:43.957Z,11.70
2019-03-24T02:41:43.947Z,12.70
2019-03-24T02:42:43.930Z,12.60
2019-03-24T02:43:43.920Z,12.90
2019-03-24T02:44:43.923Z,12.10
2019-03-24T02:45:43.891Z,12.00
2019-03-24T02:46:43.877Z,12.20
2019-03-24T02:47:43.867Z,13.40
2019-03-24T02:48:43.855Z,12.10
2019-03-24T02:49:43.839Z,12.30
2019-03-24T02:50:43.824Z,12.80
2019-03-24T02:51:43.813Z,13.10
2019-03-24T02:52:43.799Z,12.30
2019-03-24T02:53:43.792Z,12.70
2019-03-24T02:54:43.771Z,13.10
2019-03-24T02:55:43.762Z,13.60
2019-03-24T02:56:43.749Z,13.00
2019-03-24T02:57:43.736Z,13.40
2019-03-24T02:58:43.717Z,13.80
2019-03-24T02:59:43.704Z,12.30
2019-03-24T03:00:43.699Z,12.60
2019-03-24T03:01:43.679Z,13.60
2019-03-24T03:02:43.675Z,13.40
2019-03-24T03:03:43.659Z,13.80
2019-03-24T03:04:43.639Z,13.10
2019-03-24T03:05:43.627Z,13.00
2019-03-24T03:06:43.612Z,12.50
2019-03-24T03:07:43.602Z,11.90
2019-03-24T03:08:43.589Z,12.50
2019-03-24T03:09:43.574Z,12.40
2019-03-24T03:10:43.563Z,12.00
2019-03-24T03:11:43.545Z,12.00
2019-03-24T03:12:43.554Z,12.90
2019-03-24T03:13:43.520Z,11.80
2019-03-24T03:14:43.545Z,12.80
2019-03-24T03:15:43.501Z,11.50
2019-03-24T03:16:43.499Z,12.90
2019-03-24T03:17:43.468Z,13.00
2019-03-24T03:18:43.457Z,13.30
2019-03-24T03:19:43.447Z,13.00
2019-03-24T03:20:43.432Z,12.50
2019-03-24T03:21:43.415Z,12.40
2019-03-24T03:22:43.400Z,12.60
2019-03-24T03:23:43.387Z,12.80
2019-03-24T03:24:43.379Z,13.10
2019-03-24T03:25:43.360Z,13.10
2019-03-24T03:26:43.345Z,13.70
2019-03-24T03:27:43.335Z,13.20
2019-03-24T03:28:43.317Z,13.80
2019-03-24T03:29:43.307Z,13.60
2019-03-24T03:30:43.288Z,13.70
2019-03-24T03:31:43.279Z,13.40
2019-03-24T03:32:43.265Z,13.20
2019-03-24T03:33:43.250Z,13.60
2019-03-24T03:34:43.233Z,12.80
2019-03-24T03:35:43.224Z,12.90
2019-03-24T03:36:43.311Z,13.00
2019-03-24T03:37:43.196Z,12.30
2019-03-24T03:38:43.180Z,13.10
2019-03-24T03:39:43.177Z,13.10
2019-03-24T03:40:43.163Z,14.10
2019-03-24T03:41:43.172Z,13.00
2019-03-24T03:42:43.125Z,13.30
2019-03-24T03:43:43.110Z,13.00
2019-03-24T03:44:43.097Z,12.10
2019-03-24T03:45:43.086Z,13.00
2019-03-24T03:46:52.474Z,12.70
2019-03-24T03:47:43.056Z,12.00
2019-03-24T03:48:43.044Z,12.50
2019-03-24T03:49:43.028Z,12.90
2019-03-24T03:50:43.014Z,12.90
2019-03-24T03:51:43.006Z,13.70
2019-03-24T03:52:42.990Z,12.70
2019-03-24T03:53:42.975Z,12.40
2019-03-24T03:54:42.961Z,13.00
2019-03-24T03:55:42.954Z,12.10
2019-03-24T03:56:42.937Z,11.70
2019-03-24T03:57:42.924Z,12.00
2019-03-24T03:58:42.904Z,12.40
2019-03-24T03:59:42.892Z,13.70
2019-03-24T04:00:42.882Z,14.30
2019-03-24T04:01:42.864Z,14.60
2019-03-24T04:02:42.854Z,14.70
2019-03-24T04:03:42.905Z,13.70
2019-03-24T04:04:42.826Z,14.50
2019-03-24T04:05:42.814Z,14.10
2019-03-24T04:06:42.793Z,15.10
2019-03-24T04:07:42.783Z,13.70
2019-03-24T04:08:42.771Z,14.00
2019-03-24T04:09:42.756Z,13.50
2019-03-24T04:10:42.743Z,13.40
2019-03-24T04:11:42.730Z,13.70
2019-03-24T04:12:42.716Z,13.90
2019-03-24T04:13:42.700Z,15.20
2019-03-24T04:14:42.689Z,13.60
2019-03-24T04:15:42.675Z,13.70
2019-03-24T04:16:42.656Z,15.00
2019-03-24T04:17:42.645Z,13.60
2019-03-24T04:18:42.631Z,13.60
2019-03-24T04:19:42.617Z,13.20
2019-03-24T04:20:42.705Z,13.30
2019-03-24T04:21:42.589Z,13.80
2019-03-24T04:22:42.571Z,13.20
2019-03-24T04:23:42.560Z,14.10
2019-03-24T04:24:42.551Z,13.50
2019-03-24T04:25:42.538Z,12.60
2019-03-24T04:26:42.518Z,13.10
2019-03-24T04:27:42.505Z,13.50
2019-03-24T04:28:42.492Z,14.70
2019-03-24T04:29:42.480Z,14.00
2019-03-24T04:30:42.459Z,14.10
2019-03-24T04:31:42.448Z,14.00
2019-03-24T04:32:42.434Z,14.30
2019-03-24T04:33:42.422Z,13.80
2019-03-24T04:34:42.412Z,12.80
2019-03-24T04:35:42.397Z,13.70
2019-03-24T04:36:42.376Z,13.10
2019-03-24T04:37:42.366Z,14.60
2019-03-24T04:38:42.350Z,14.00
2019-03-24T04:39:42.336Z,14.30
2019-03-24T04:40:42.322Z,15.30
2019-03-24T04:41:42.313Z,14.60
2019-03-24T04:42:42.293Z,14.00
2019-03-24T04:43:42.282Z,14.00
2019-03-24T04:44:42.266Z,13.60
2019-03-24T04:45:42.250Z,14.00
2019-03-24T04:46:42.237Z,14.70
2019-03-24T04:47:42.248Z,13.00
2019-03-24T04:48:42.206Z,15.90
2019-03-24T04:49:42.192Z,14.60
2019-03-24T04:50:42.178Z,15.00
2019-03-24T04:51:42.166Z,14.70
2019-03-24T04:52:42.153Z,15.50
2019-03-24T04:53:42.142Z,14.50
2019-03-24T04:54:42.124Z,13.90
2019-03-24T04:55:42.110Z,14.60
2019-03-24T04:56:42.091Z,15.70
2019-03-24T04:57:42.085Z,12.80
2019-03-24T04:58:42.067Z,14.00
2019-03-24T04:59:42.050Z,14.60
2019-03-24T05:00:42.039Z,15.30
2019-03-24T05:01:42.027Z,15.00
2019-03-24T05:02:42.009Z,15.30
2019-03-24T05:03:41.995Z,15.30
2019-03-24T05:04:41.984Z,14.60
2019-03-24T05:05:41.964Z,14.80
2019-03-24T05:06:41.950Z,14.60
2019-03-24T05:07:41.936Z,13.20
2019-03-24T05:08:41.921Z,14.50
2019-03-24T05:09:41.912Z,14.90
2019-03-24T05:10:41.906Z,15.70
2019-03-24T05:11:41.881Z,14.80
2019-03-24T05:12:41.867Z,15.20
2019-03-24T05:13:41.853Z,15.00
2019-03-24T05:14:41.840Z,15.60
2019-03-24T05:15:41.824Z,14.70
2019-03-24T05:16:41.812Z,15.40
2019-03-24T05:17:41.798Z,14.90
2019-03-24T05:18:41.784Z,15.10
2019-03-24T05:19:41.766Z,15.10
2019-03-24T05:20:41.754Z,14.20
2019-03-24T05:21:41.739Z,15.50
2019-03-24T05:22:41.724Z,14.70
2019-03-24T05:23:41.711Z,16.80
2019-03-24T05:24:41.697Z,15.30
2019-03-24T05:25:41.684Z,16.40
2019-03-24T05:26:41.670Z,16.50
2019-03-24T05:27:41.662Z,14.80
2019-03-24T05:28:41.641Z,15.60
2019-03-24T05:29:41.628Z,15.80
2019-03-24T05:30:41.609Z,15.90
2019-03-24T05:31:41.596Z,16.10
2019-03-24T05:32:41.582Z,15.50
2019-03-24T05:33:41.571Z,15.90
2019-03-24T05:34:41.557Z,15.90
2019-03-24T05:35:41.543Z,15.60
2019-03-24T05:36:41.528Z,14.20
2019-03-24T05:37:41.513Z,14.40
2019-03-24T05:38:41.500Z,14.80
2019-03-24T05:39:41.520Z,13.10
2019-03-24T05:40:41.471Z,13.30
2019-03-24T05:41:41.456Z,13.30
2019-03-24T05:42:41.440Z,13.60
2019-03-24T05:43:41.429Z,13.70
2019-03-24T05:44:41.416Z,14.50
2019-03-24T05:45:41.398Z,13.60
2019-03-24T05:46:41.387Z,13.50
2019-03-24T05:47:41.373Z,12.90
2019-03-24T05:48:41.358Z,12.70
2019-03-24T05:49:41.346Z,13.60
2019-03-24T05:50:41.332Z,11.80
2019-03-24T05:51:41.320Z,13.20
2019-03-24T05:52:41.303Z,13.20
2019-03-24T05:53:41.286Z,13.40
2019-03-24T05:54:41.272Z,13.60
2019-03-24T05:55:41.260Z,14.80
2019-03-24T05:56:41.246Z,14.00
2019-03-24T05:57:41.230Z,14.10
2019-03-24T05:58:41.218Z,15.20
2019-03-24T05:59:41.201Z,14.50
2019-03-24T06:00:41.186Z,14.70
2019-03-24T06:01:41.178Z,14.20
2019-03-24T06:02:41.157Z,14.00
2019-03-24T06:03:41.147Z,14.10
2019-03-24T06:04:41.130Z,14.70
2019-03-24T06:05:41.114Z,14.50
2019-03-24T06:06:41.101Z,14.80
2019-03-24T06:07:41.088Z,14.10
2019-03-24T06:08:41.074Z,14.10
2019-03-24T06:09:41.058Z,14.00
2019-03-24T06:10:41.043Z,13.70
2019-03-24T06:11:41.028Z,13.40
2019-03-24T06:12:41.014Z,15.40
2019-03-24T06:13:41.008Z,14.60
2019-03-24T06:14:40.985Z,14.60
2019-03-24T06:15:40.973Z,14.50
2019-03-24T06:16:40.961Z,14.70
2019-03-24T06:17:47.742Z,14.80
2019-03-24T06:18:40.932Z,14.30
2019-03-24T06:19:40.919Z,14.50
2019-03-24T06:20:40.904Z,14.40
2019-03-24T06:21:40.888Z,14.50
2019-03-24T06:22:40.872Z,14.60
2019-03-24T06:23:40.858Z,14.90
2019-03-24T06:24:40.847Z,14.50
2019-03-24T06:25:40.836Z,14.10
2019-03-24T06:26:40.818Z,14.30
2019-03-24T06:27:40.806Z,13.90
2019-03-24T06:28:40.795Z,15.10
2019-03-24T06:29:40.776Z,14.20
2019-03-24T06:30:40.760Z,14.00
2019-03-24T06:31:40.748Z,14.10
2019-03-24T06:32:40.734Z,13.60
2019-03-24T06:33:40.721Z,14.00
2019-03-24T06:34:40.704Z,13.70
2019-03-24T06:35:40.693Z,13.20
2019-03-24T06:36:40.676Z,13.50
2019-03-24T06:37:40.663Z,13.90
2019-03-24T06:38:40.649Z,14.90
2019-03-24T06:39:40.637Z,15.10
2019-03-24T06:40:40.620Z,14.10
2019-03-24T06:41:40.611Z,14.70
2019-03-24T06:42:40.596Z,14.00
2019-03-24T06:43:40.583Z,13.40
2019-03-24T06:44:40.568Z,13.60
2019-03-24T06:45:40.557Z,14.00
2019-03-24T06:46:40.541Z,13.10
2019-03-24T06:47:40.529Z,13.90
2019-03-24T06:48:40.514Z,13.50
2019-03-24T06:49:40.506Z,13.90
2019-03-24T06:50:40.492Z,14.10
2019-03-24T06:51:40.479Z,14.50
2019-03-24T06:52:40.464Z,13.80
2019-03-24T06:53:40.452Z,14.90
2019-03-24T06:54:40.443Z,14.10
2019-03-24T06:55:40.426Z,14.30
2019-03-24T06:56:40.414Z,15.40
2019-03-24T06:57:40.401Z,14.40
2019-03-24T06:58:40.384Z,14.70
2019-03-24T06:59:40.375Z,15.00
2019-03-24T07:00:40.360Z,15.30
2019-03-24T07:01:40.351Z,14.30
2019-03-24T07:02:40.335Z,13.60
2019-03-24T07:03:40.323Z,13.80
2019-03-24T07:04:40.310Z,13.30
2019-03-24T07:05:40.302Z,13.60
2019-03-24T07:06:40.283Z,14.40
2019-03-24T07:07:40.271Z,13.30
2019-03-24T07:08:40.258Z,13.90
2019-03-24T07:09:40.248Z,12.80
2019-03-24T07:10:40.236Z,13.20
2019-03-24T07:11:40.225Z,13.20
2019-03-24T07:12:40.212Z,13.30
2019-03-24T07:13:40.199Z,14.60
2019-03-24T07:14:40.186Z,14.10
2019-03-24T07:15:40.173Z,13.20
2019-03-24T07:16:40.164Z,14.20
2019-03-24T07:17:40.150Z,14.60
2019-03-24T07:18:40.137Z,13.80
2019-03-24T07:19:40.126Z,13.30
2019-03-24T07:20:40.114Z,14.50
2019-03-24T07:21:40.109Z,14.10
2019-03-24T07:22:40.087Z,13.70
2019-03-24T07:23:40.082Z,14.20
2019-03-24T07:24:40.068Z,13.90
2019-03-24T07:25:40.060Z,13.40
2019-03-24T07:26:40.045Z,13.70
2019-03-24T07:27:40.033Z,13.30
2019-03-24T07:28:40.018Z,13.30
2019-03-24T07:29:41.228Z,13.40
2019-03-24T07:30:39.994Z,13.70
2019-03-24T07:31:39.988Z,14.20
2019-03-24T07:32:39.971Z,15.10
2019-03-24T07:33:39.959Z,14.20
2019-03-24T07:34:39.948Z,13.10
2019-03-24T07:35:40.007Z,13.30
2019-03-24T07:36:39.926Z,13.10
2019-03-24T07:37:39.912Z,13.90
2019-03-24T07:38:39.903Z,13.50
2019-03-24T07:39:39.889Z,13.70
2019-03-24T07:40:39.880Z,13.70
2019-03-24T07:41:39.868Z,13.80
2019-03-24T07:42:39.857Z,14.10
2019-03-24T07:43:39.845Z,13.80
2019-03-24T07:44:39.835Z,13.50
2019-03-24T07:45:39.823Z,14.60
2019-03-24T07:46:39.810Z,14.70
2019-03-24T07:47:39.796Z,14.80
2019-03-24T07:48:39.787Z,14.30
2019-03-24T07:49:39.775Z,14.00
2019-03-24T07:50:39.762Z,14.00
2019-03-24T07:51:39.762Z,14.20
2019-03-24T07:52:39.744Z,14.00
2019-03-24T07:53:39.730Z,13.80
2019-03-24T07:54:39.719Z,14.80
2019-03-24T07:55:39.706Z,14.30
2019-03-24T07:56:39.694Z,14.60
2019-03-24T07:57:39.687Z,14.80
2019-03-24T07:58:39.673Z,14.50
2019-03-24T07:59:39.666Z,13.60
2019-03-24T08:00:39.654Z,13.70
2019-03-24T08:01:39.644Z,14.10
2019-03-24T08:02:39.627Z,14.30
2019-03-24T08:03:39.617Z,15.70
2019-03-24T08:04:39.610Z,14.90
2019-03-24T08:05:39.595Z,15.40
2019-03-24T08:06:39.586Z,15.60
2019-03-24T08:07:39.575Z,15.30
2019-03-24T08:08:44.130Z,14.60
2019-03-24T08:09:39.557Z,15.40
2019-03-24T08:10:39.544Z,15.40
2019-03-24T08:11:39.531Z,15.60
2019-03-24T08:12:39.548Z,14.70
2019-03-24T08:13:39.510Z,14.70
2019-03-24T08:14:39.500Z,15.90
2019-03-24T08:15:39.488Z,15.00
2019-03-24T08:16:39.481Z,14.80
2019-03-24T08:17:39.467Z,14.30
2019-03-24T08:18:39.460Z,15.60
2019-03-24T08:19:39.445Z,14.30
2019-03-24T08:20:39.437Z,14.40
2019-03-24T08:21:39.430Z,15.30
2019-03-24T08:22:39.415Z,15.00
2019-03-24T08:23:39.408Z,15.30
2019-03-24T08:24:39.398Z,16.30
2019-03-24T08:25:39.391Z,14.70
2019-03-24T08:26:39.374Z,15.40
2019-03-24T08:27:39.365Z,15.50
2019-03-24T08:28:39.361Z,16.10
2019-03-24T08:29:39.342Z,16.60
2019-03-24T08:30:39.335Z,14.90
2019-03-24T08:31:39.325Z,14.80
2019-03-24T08:32:39.314Z,15.70
2019-03-24T08:33:39.306Z,15.30
2019-03-24T08:34:39.296Z,16.70
2019-03-24T08:35:39.288Z,16.40
2019-03-24T08:36:39.275Z,15.80
2019-03-24T08:37:39.265Z,15.60
2019-03-24T08:38:39.253Z,15.00
2019-03-24T08:39:39.244Z,15.80
2019-03-24T08:40:39.238Z,16.20
2019-03-24T08:41:39.225Z,15.20
2019-03-24T08:42:39.215Z,17.40
2019-03-24T08:43:39.205Z,16.10
2019-03-24T08:44:39.199Z,16.50
2019-03-24T08:45:39.185Z,17.00
2019-03-24T08:46:39.177Z,16.50
2019-03-24T08:47:39.166Z,16.60
2019-03-24T08:48:41.108Z,15.40
2019-03-24T08:49:39.145Z,15.30
2019-03-24T08:50:39.135Z,15.80
2019-03-24T08:51:39.125Z,16.30
2019-03-24T08:52:39.116Z,17.00
2019-03-24T08:53:39.110Z,16.30
2019-03-24T08:54:39.098Z,16.20
2019-03-24T08:55:39.096Z,17.00
2019-03-24T08:56:39.078Z,17.90
2019-03-24T08:57:39.073Z,17.70
2019-03-24T08:58:39.061Z,17.20
2019-03-24T08:59:39.053Z,17.80
2019-03-24T09:00:39.045Z,16.20
2019-03-24T09:01:39.034Z,16.50
2019-03-24T09:02:39.027Z,18.20
2019-03-24T09:03:39.013Z,17.70
2019-03-24T09:04:39.006Z,17.90
2019-03-24T09:05:38.997Z,20.20
2019-03-24T09:06:38.989Z,20.50
2019-03-24T09:07:38.976Z,18.60
2019-03-24T09:08:38.974Z,20.00
2019-03-24T09:09:38.961Z,20.70
2019-03-24T09:10:38.951Z,20.10
2019-03-24T09:11:38.943Z,18.80
2019-03-24T09:12:38.933Z,19.50
2019-03-24T09:13:38.927Z,19.80
2019-03-24T09:14:38.916Z,19.50
2019-03-24T09:15:38.908Z,20.10
2019-03-24T09:16:38.896Z,19.10
2019-03-24T09:17:41.159Z,19.40
2019-03-24T09:18:38.883Z,17.20
2019-03-24T09:19:38.870Z,19.30
2019-03-24T09:20:41.827Z,19.70
2019-03-24T09:21:38.855Z,18.90
2019-03-24T09:22:38.850Z,18.50
2019-03-24T09:23:38.836Z,19.20
2019-03-24T09:24:38.827Z,19.20
2019-03-24T09:25:38.822Z,18.20
2019-03-24T09:26:38.811Z,19.20
2019-03-24T09:27:38.802Z,19.20
2019-03-24T09:28:38.796Z,19.70
2019-03-24T09:29:38.789Z,20.00
2019-03-24T09:30:38.789Z,19.70
2019-03-24T09:31:38.772Z,19.40
2019-03-24T09:32:38.772Z,19.60
2019-03-24T09:33:38.751Z,20.10
2019-03-24T09:34:40.567Z,20.20
2019-03-24T09:35:38.734Z,19.20
2019-03-24T09:36:38.727Z,21.00
2019-03-24T09:37:38.724Z,18.50
2019-03-24T09:38:38.710Z,19.40
2019-03-24T09:39:38.700Z,19.20
2019-03-24T09:40:38.690Z,20.80
2019-03-24T09:41:38.688Z,20.50
2019-03-24T09:42:38.677Z,20.30
2019-03-24T09:43:38.670Z,20.20
2019-03-24T09:44:38.661Z,19.90
2019-03-24T09:45:38.651Z,20.00
2019-03-24T09:46:38.641Z,19.70
2019-03-24T09:47:38.637Z,20.20
2019-03-24T09:48:38.628Z,21.30
2019-03-24T09:49:38.620Z,20.80
2019-03-24T09:50:38.614Z,21.60
2019-03-24T09:51:38.603Z,21.70
2019-03-24T09:52:38.596Z,20.80
2019-03-24T09:53:38.589Z,22.70
2019-03-24T09:54:38.579Z,22.60
2019-03-24T09:55:38.570Z,21.20
2019-03-24T09:56:38.565Z,21.40
2019-03-24T09:57:38.555Z,22.50
2019-03-24T09:58:38.546Z,20.70
2019-03-24T09:59:38.538Z,22.40
2019-03-24T10:00:38.533Z,23.70
2019-03-24T10:01:38.521Z,23.50
2019-03-24T10:02:38.512Z,23.60
2019-03-24T10:03:38.504Z,24.10
2019-03-24T10:04:38.495Z,23.10
2019-03-24T10:05:38.492Z,23.60
2019-03-24T10:06:38.483Z,22.20
2019-03-24T10:07:38.473Z,22.20
2019-03-24T10:08:46.758Z,24.20
2019-03-24T10:09:38.459Z,23.50
2019-03-24T10:10:38.449Z,24.10
2019-03-24T10:11:38.441Z,24.20
2019-03-24T10:12:38.434Z,23.80
2019-03-24T10:13:38.428Z,24.00
2019-03-24T10:14:38.417Z,24.70
2019-03-24T10:15:38.411Z,23.70
2019-03-24T10:16:38.403Z,23.30
2019-03-24T10:17:38.396Z,24.70
2019-03-24T10:18:38.390Z,24.40
2019-03-24T10:19:38.382Z,24.60
2019-03-24T10:20:38.376Z,25.30
2019-03-24T10:21:38.369Z,24.30
2019-03-24T10:22:38.368Z,24.60
2019-03-24T10:23:38.351Z,25.20
2019-03-24T10:24:38.343Z,25.90
2019-03-24T10:25:38.337Z,26.20
2019-03-24T10:26:38.330Z,25.90
2019-03-24T10:27:38.320Z,26.00
2019-03-24T10:28:38.314Z,24.90
2019-03-24T10:29:38.306Z,24.80
2019-03-24T10:30:38.301Z,24.60
2019-03-24T10:31:38.294Z,24.40
2019-03-24T10:32:38.289Z,25.30
2019-03-24T10:33:38.280Z,24.00
2019-03-24T10:34:38.269Z,22.90
2019-03-24T10:35:38.271Z,23.80
2019-03-24T10:36:38.259Z,24.40
2019-03-24T10:37:38.248Z,24.40
2019-03-24T10:38:38.243Z,24.40
2019-03-24T10:39:38.237Z,24.30
2019-03-24T10:40:38.228Z,24.30
2019-03-24T10:41:38.225Z,23.90
2019-03-24T10:42:38.215Z,25.70
2019-03-24T10:43:38.206Z,24.70
2019-03-24T10:44:40.371Z,23.70
2019-03-24T10:45:38.192Z,24.30
2019-03-24T10:46:38.191Z,24.40
2019-03-24T10:47:38.224Z,23.50
2019-03-24T10:48:38.172Z,24.10
2019-03-24T10:49:38.166Z,24.80
2019-03-24T10:50:38.160Z,24.00
2019-03-24T10:51:38.153Z,23.80
2019-03-24T10:52:38.146Z,25.40
2019-03-24T10:53:38.138Z,23.30
2019-03-24T10:54:38.134Z,23.70
2019-03-24T10:55:38.127Z,24.70
2019-03-24T10:56:38.124Z,24.20
2019-03-24T10:57:38.113Z,23.90
2019-03-24T10:58:38.107Z,25.70
2019-03-24T10:59:38.099Z,25.10
2019-03-24T11:00:38.095Z,25.00
2019-03-24T11:01:38.090Z,25.10
2019-03-24T11:02:38.084Z,24.00
2019-03-24T11:03:38.075Z,23.80
2019-03-24T11:04:38.069Z,24.70
2019-03-24T11:05:38.063Z,24.70
2019-03-24T11:06:38.054Z,24.60
2019-03-24T11:07:38.049Z,25.70
2019-03-24T11:08:38.041Z,25.10
2019-03-24T11:09:38.036Z,23.90
2019-03-24T11:10:38.035Z,25.10
2019-03-24T11:11:38.024Z,25.20
2019-03-24T11:12:38.021Z,26.00
2019-03-24T11:13:38.009Z,24.00
2019-03-24T11:14:38.011Z,25.40
2019-03-24T11:15:38.001Z,24.80
2019-03-24T11:16:37.993Z,26.10
2019-03-24T11:17:37.985Z,24.40
2019-03-24T11:18:37.979Z,25.70
2019-03-24T11:19:37.974Z,23.90
2019-03-24T11:20:37.965Z,25.70
2019-03-24T11:21:37.962Z,24.30
2019-03-24T11:22:37.958Z,24.00
2019-03-24T11:23:37.954Z,24.70
2019-03-24T11:24:37.945Z,24.80
2019-03-24T11:25:37.942Z,25.70
2019-03-24T11:26:37.930Z,24.60
2019-03-24T11:27:37.928Z,25.20
2019-03-24T11:28:37.921Z,24.60
2019-03-24T11:29:37.914Z,25.00
2019-03-24T11:30:37.912Z,24.90
2019-03-24T11:31:37.907Z,24.70
2019-03-24T11:32:37.896Z,24.50
2019-03-24T11:33:37.894Z,24.20
2019-03-24T11:34:37.886Z,25.20
2019-03-24T11:35:37.880Z,25.10
2019-03-24T11:36:37.876Z,24.70
2019-03-24T11:37:37.870Z,24.50
2019-03-24T11:38:37.863Z,24.30
2019-03-24T11:39:37.857Z,24.20
2019-03-24T11:40:37.853Z,23.20
2019-03-24T11:41:37.847Z,24.50
2019-03-24T11:42:37.841Z,24.00
2019-03-24T11:43:37.835Z,24.90
2019-03-24T11:44:37.830Z,24.80
2019-03-24T11:45:37.823Z,24.60
2019-03-24T11:46:37.821Z,24.50
2019-03-24T11:47:37.814Z,24.00
2019-03-24T11:48:37.809Z,23.80
2019-03-24T11:49:45.701Z,23.80
2019-03-24T11:50:37.796Z,23.90
2019-03-24T11:51:37.791Z,22.60
2019-03-24T11:52:37.794Z,24.20
2019-03-24T11:53:37.782Z,23.70
2019-03-24T11:54:37.774Z,23.70
2019-03-24T11:55:37.769Z,23.20
2019-03-24T11:56:37.765Z,23.60
2019-03-24T11:57:37.764Z,22.20
2019-03-24T11:58:37.780Z,21.20
2019-03-24T11:59:37.746Z,21.80
2019-03-24T12:00:37.740Z,22.70
2019-03-24T12:01:38.533Z,21.50
2019-03-24T12:02:37.730Z,21.80
2019-03-24T12:03:37.789Z,21.50
2019-03-24T12:04:37.725Z,23.40
2019-03-24T12:05:37.713Z,23.30
2019-03-24T12:06:37.711Z,22.10
2019-03-24T12:07:37.703Z,22.30
2019-03-24T12:08:38.854Z,22.20
2019-03-24T12:09:37.698Z,21.80
2019-03-24T12:10:37.688Z,21.10
2019-03-24T12:11:37.684Z,22.00
2019-03-24T12:12:37.675Z,23.10
2019-03-24T12:13:37.670Z,21.70
2019-03-24T12:14:37.663Z,22.20
2019-03-24T12:15:37.661Z,20.90
2019-03-24T12:16:37.652Z,21.70
2019-03-24T12:17:37.648Z,21.30
2019-03-24T12:18:37.643Z,20.30
2019-03-24T12:19:37.639Z,21.00
2019-03-24T12:20:37.632Z,21.30
2019-03-24T12:21:37.629Z,20.50
2019-03-24T12:22:37.633Z,20.10
2019-03-24T12:23:37.617Z,20.60
2019-03-24T12:24:37.609Z,20.90
2019-03-24T12:25:37.610Z,21.90
2019-03-24T12:26:37.602Z,20.20
2019-03-24T12:27:37.593Z,19.60
2019-03-24T12:28:37.586Z,19.30
2019-03-24T12:29:37.584Z,19.70
2019-03-24T12:30:37.578Z,19.30
2019-03-24T12:31:37.570Z,19.30
2019-03-24T12:32:37.563Z,18.10
2019-03-24T12:33:37.577Z,19.60
2019-03-24T12:34:37.554Z,19.00
2019-03-24T12:35:37.549Z,19.10
2019-03-24T12:36:37.545Z,19.50
2019-03-24T12:37:37.537Z,17.80
2019-03-24T12:38:37.533Z,19.20
2019-03-24T12:39:37.533Z,19.80
2019-03-24T12:40:37.523Z,19.70
2019-03-24T12:41:37.516Z,20.00
2019-03-24T12:42:37.509Z,19.50
2019-03-24T12:43:37.506Z,19.90
2019-03-24T12:44:37.502Z,19.00
2019-03-24T12:45:37.494Z,18.90
2019-03-24T12:46:37.490Z,17.90
2019-03-24T12:47:37.485Z,19.60
2019-03-24T12:48:37.478Z,19.10
2019-03-24T12:49:37.471Z,18.50
2019-03-24T12:50:37.468Z,18.70
2019-03-24T12:51:37.463Z,19.50
2019-03-24T12:52:37.461Z,17.70
2019-03-24T12:53:37.455Z,19.30